createdAt,value
2024-05-09T00:01:55.519Z,31.95
2024-05-09T00:04:25.204Z,32.06
2024-05-09T00:06:54.559Z,32.35
2024-05-09T00:09:24.367Z,32.26
2024-05-09T00:11:53.861Z,32.65
2024-05-09T00:14:26.648Z,32.73
2024-05-09T00:16:56.253Z,32.88
2024-05-09T00:19:25.930Z,32.67
2024-05-09T00:21:55.374Z,32.35
2024-05-09T00:24:24.792Z,32.74
2024-05-09T00:26:54.376Z,32.92
2024-05-09T00:29:26.998Z,32.58
2024-05-09T00:31:56.751Z,32.42
2024-05-09T00:34:28.791Z,33.18
2024-05-09T00:36:58.249Z,32.95
2024-05-09T00:39:27.570Z,32.92
2024-05-09T00:41:57.214Z,33.20
2024-05-09T00:44:29.197Z,33.10
2024-05-09T00:46:59.011Z,33.02
2024-05-09T00:49:29.506Z,33.22
2024-05-09T00:52:00.118Z,33.57
2024-05-09T00:54:30.019Z,33.50
2024-05-09T00:56:59.589Z,33.47
2024-05-09T00:59:33.578Z,33.63
2024-05-09T01:02:03.382Z,33.93
2024-05-09T01:05:05.109Z,34.03
2024-05-09T01:07:34.664Z,33.68
2024-05-09T01:10:05.547Z,33.32
2024-05-09T01:12:36.907Z,33.57
2024-05-09T01:15:09.684Z,33.61
2024-05-09T01:17:39.696Z,33.55
2024-05-09T01:20:13.140Z,33.99
2024-05-09T01:22:50.213Z,33.51
2024-05-09T01:25:22.487Z,33.81
2024-05-09T01:27:51.955Z,33.69
2024-05-09T01:30:27.982Z,34.22
2024-05-09T01:33:03.698Z,34.18
2024-05-09T01:35:33.447Z,33.51
2024-05-09T01:38:02.870Z,34.10
2024-05-09T01:40:38.684Z,34.57
2024-05-09T01:43:11.149Z,34.24
2024-05-09T01:45:41.782Z,34.40
2024-05-09T01:48:12.124Z,34.36
2024-05-09T01:50:43.210Z,34.29
2024-05-09T01:53:14.746Z,34.46
2024-05-09T01:55:47.271Z,34.05
2024-05-09T01:58:17.288Z,34.26
2024-05-09T02:00:48.112Z,34.44
2024-05-09T02:03:18.140Z,34.66
2024-05-09T02:05:49.609Z,34.53
2024-05-09T02:08:22.232Z,34.48
2024-05-09T02:10:54.449Z,35.31
2024-05-09T02:13:23.779Z,35.09
2024-05-09T02:15:53.836Z,34.73
2024-05-09T02:18:23.398Z,35.16
2024-05-09T02:20:53.175Z,34.66
2024-05-09T02:23:22.671Z,34.34
2024-05-09T02:25:54.880Z,34.78
2024-05-09T02:28:24.596Z,35.04
2024-05-09T02:30:54.054Z,34.81
2024-05-09T02:33:21.291Z,34.80
2024-05-09T02:35:51.130Z,34.93
2024-05-09T02:38:17.972Z,35.53
2024-05-09T02:40:47.439Z,34.57
2024-05-09T02:43:16.962Z,35.11
2024-05-09T02:45:46.445Z,35.25
2024-05-09T02:48:14.100Z,35.35
2024-05-09T03:12:08.853Z,36.11
2024-05-09T03:20:33.051Z,35.02
2024-05-09T04:02:57.539Z,36.37
2024-05-09T04:08:08.016Z,36.00
2024-05-09T04:10:50.391Z,36.27
2024-05-09T04:27:59.178Z,36.21
2024-05-09T04:36:19.912Z,36.27
2024-05-09T04:53:17.924Z,37.10
2024-05-09T05:23:13.720Z,36.89
2024-05-09T05:55:03.561Z,37.24
2024-05-09T07:09:14.727Z,32.63
2024-05-09T07:28:10.377Z,32.47
2024-05-09T07:34:43.818Z,31.98
2024-05-09T07:36:55.570Z,32.53
2024-05-09T07:44:06.916Z,31.31
2024-05-09T07:54:11.296Z,31.11
2024-05-09T07:58:01.444Z,30.38
2024-05-09T08:53:51.236Z,26.24
2024-05-09T08:56:25.073Z,27.24
2024-05-09T09:02:03.036Z,26.02
2024-05-09T09:04:45.457Z,25.68
2024-05-09T09:07:14.497Z,26.17
2024-05-09T09:09:55.257Z,25.19
2024-05-09T09:12:30.544Z,24.96
2024-05-09T09:15:44.270Z,24.74
2024-05-09T09:18:27.111Z,24.92
2024-05-09T09:21:03.622Z,24.58
2024-05-09T09:23:45.126Z,24.73
2024-05-09T09:26:29.724Z,24.01
2024-05-09T09:29:04.231Z,25.58
2024-05-09T09:31:43.071Z,23.51
2024-05-09T09:34:12.624Z,23.70
2024-05-09T09:36:48.479Z,23.82
2024-05-09T09:39:32.085Z,23.46
2024-05-09T09:42:50.073Z,21.67
2024-05-09T09:45:32.150Z,23.02
2024-05-09T09:48:33.802Z,22.27
2024-05-09T09:51:14.051Z,22.39
2024-05-09T09:54:22.648Z,23.08
2024-05-09T10:00:50.278Z,22.01
2024-05-09T10:03:51.762Z,21.73
2024-05-09T10:06:54.117Z,21.94
2024-05-09T10:09:33.396Z,21.89
2024-05-09T10:12:23.816Z,21.94
2024-05-09T10:15:13.054Z,22.00
2024-05-09T10:18:10.458Z,20.89
2024-05-09T10:21:09.196Z,22.08
2024-05-09T10:23:55.184Z,20.62
2024-05-09T10:26:44.822Z,20.92
2024-05-09T10:29:27.270Z,20.72
2024-05-09T10:32:00.899Z,20.29
2024-05-09T10:34:50.049Z,20.38
2024-05-09T10:37:26.016Z,21.29
2024-05-09T10:39:58.231Z,21.93
2024-05-09T10:42:31.269Z,20.59
2024-05-09T10:45:09.805Z,19.61
2024-05-09T10:48:16.333Z,19.61
2024-05-09T10:50:50.810Z,20.88
2024-05-09T10:56:59.468Z,19.29
2024-05-09T10:59:37.840Z,20.12
2024-05-09T11:02:22.817Z,19.29
2024-05-09T11:05:04.558Z,18.90
2024-05-09T11:07:45.551Z,19.63
2024-05-09T11:10:24.350Z,19.95
2024-05-09T11:13:34.740Z,18.98
2024-05-09T11:16:22.065Z,20.04
2024-05-09T11:19:10.609Z,19.23
2024-05-09T11:21:39.873Z,19.72
2024-05-09T11:24:12.945Z,19.55
2024-05-09T11:26:41.431Z,19.57
2024-05-09T11:29:22.632Z,19.72
2024-05-09T11:32:06.606Z,18.76
2024-05-09T11:34:59.286Z,19.42
2024-05-09T11:37:32.713Z,20.03
2024-05-09T11:40:39.480Z,18.24
2024-05-09T11:47:01.680Z,17.90
2024-05-09T11:51:57.991Z,19.02
2024-05-09T12:08:04.141Z,18.82
2024-05-09T12:10:35.809Z,19.08
2024-05-09T12:13:17.938Z,18.71
2024-05-09T12:15:53.582Z,19.46
2024-05-09T12:25:32.007Z,18.35
2024-05-09T12:28:14.238Z,19.48
2024-05-09T12:31:05.427Z,18.82
2024-05-09T12:33:59.655Z,18.69
2024-05-09T12:36:58.276Z,19.02
2024-05-09T12:40:35.622Z,18.98
2024-05-09T12:43:25.444Z,18.98
2024-05-09T12:46:04.330Z,18.59
2024-05-09T12:48:37.303Z,18.51
2024-05-09T12:51:09.856Z,19.08
2024-05-09T12:53:51.117Z,19.71
2024-05-09T12:56:28.923Z,19.44
2024-05-09T12:59:33.689Z,19.03
2024-05-09T13:02:24.393Z,18.85
2024-05-09T13:05:26.722Z,18.22
2024-05-09T13:07:59.709Z,19.17
2024-05-09T13:11:08.785Z,18.95
2024-05-09T13:14:00.398Z,18.34
2024-05-09T13:16:45.442Z,18.89
2024-05-09T13:19:27.630Z,19.22
2024-05-09T13:22:08.907Z,18.66
2024-05-09T13:24:49.667Z,18.70
2024-05-09T13:27:43.679Z,18.72
2024-05-09T13:30:42.759Z,19.54
2024-05-09T13:33:45.179Z,19.18
2024-05-09T13:36:56.989Z,19.86
2024-05-09T13:40:27.107Z,19.22
2024-05-09T13:43:06.596Z,18.95
2024-05-09T13:46:04.928Z,18.21
2024-05-09T13:48:52.462Z,18.84
2024-05-09T13:51:38.986Z,19.69
2024-05-09T13:54:15.286Z,19.33
2024-05-09T14:00:27.303Z,20.16
2024-05-09T14:03:37.079Z,19.72
2024-05-09T14:06:34.052Z,20.17
2024-05-09T14:09:19.402Z,20.30
2024-05-09T14:12:21.020Z,20.31
2024-05-09T14:15:09.924Z,20.18
2024-05-09T14:18:12.497Z,19.69
2024-05-09T14:21:05.968Z,19.74
2024-05-09T14:24:31.520Z,20.16
2024-05-09T14:27:18.491Z,20.17
2024-05-09T14:30:09.554Z,20.31
2024-05-09T14:32:56.170Z,20.67
2024-05-09T14:35:27.214Z,20.65
2024-05-09T14:38:02.595Z,20.69
2024-05-09T14:40:43.895Z,20.64
2024-05-09T14:43:25.149Z,20.61
2024-05-09T14:45:58.020Z,21.71
2024-05-09T14:48:31.839Z,23.32
2024-05-09T14:51:07.547Z,23.05
2024-05-09T14:53:54.562Z,22.18
2024-05-09T14:56:47.275Z,21.49
2024-05-09T14:59:50.713Z,23.65
2024-05-09T15:03:06.376Z,22.73
2024-05-09T15:06:32.862Z,21.26
2024-05-09T15:09:41.583Z,22.01
2024-05-09T15:12:46.404Z,22.00
2024-05-09T15:15:34.050Z,21.71
2024-05-09T15:18:14.270Z,22.03
2024-05-09T15:20:57.493Z,21.80
2024-05-09T15:30:37.784Z,20.96
2024-05-09T15:34:05.314Z,21.56
2024-05-09T15:37:07.614Z,22.44
2024-05-09T15:39:59.114Z,23.18
2024-05-09T15:42:53.238Z,22.33
2024-05-09T15:45:57.863Z,21.39
2024-05-09T15:58:10.229Z,21.77
2024-05-09T16:01:06.703Z,22.84
2024-05-09T16:03:56.940Z,21.87
2024-05-09T16:07:01.217Z,22.42
2024-05-09T16:09:41.003Z,21.80
2024-05-09T16:12:33.711Z,21.87
2024-05-09T16:18:11.963Z,21.90
2024-05-09T16:20:55.810Z,21.67
2024-05-09T16:23:32.071Z,21.90
2024-05-09T16:26:26.210Z,22.00
2024-05-09T16:29:28.324Z,22.59
2024-05-09T16:32:07.267Z,21.75
2024-05-09T16:34:54.689Z,21.98
2024-05-09T16:37:30.171Z,22.03
2024-05-09T16:56:50.113Z,22.71
2024-05-09T17:10:29.637Z,22.87
2024-05-09T17:13:21.457Z,23.14
2024-05-09T17:17:01.921Z,22.77
2024-05-09T17:20:32.197Z,22.27
2024-05-09T17:27:02.194Z,22.97
2024-05-09T17:30:29.048Z,23.69
2024-05-09T17:36:44.794Z,23.28
2024-05-09T17:40:00.818Z,23.47
2024-05-09T17:42:41.878Z,23.77
2024-05-09T17:52:48.452Z,22.98
2024-05-09T17:56:05.110Z,23.04
2024-05-09T18:02:21.923Z,23.16
2024-05-09T18:08:50.543Z,21.94
2024-05-09T18:11:57.226Z,22.63
2024-05-09T18:14:37.492Z,22.67
2024-05-09T18:17:16.385Z,22.37
2024-05-09T18:19:58.568Z,22.62
2024-05-09T18:22:31.175Z,22.36
2024-05-09T18:25:12.907Z,22.54
2024-05-09T18:27:44.637Z,23.24
2024-05-09T18:30:28.257Z,23.01
2024-05-09T18:33:18.306Z,23.48
2024-05-09T18:35:53.367Z,23.44
2024-05-09T18:38:29.763Z,23.74
2024-05-09T18:41:03.235Z,23.73
2024-05-09T18:43:44.932Z,23.62
2024-05-09T18:46:27.925Z,23.48
2024-05-09T18:49:01.293Z,23.60
2024-05-09T18:51:40.202Z,23.92
2024-05-09T18:54:18.913Z,23.30
2024-05-09T18:57:04.230Z,23.88
2024-05-09T18:59:55.251Z,23.13
2024-05-09T19:02:39.126Z,23.82
2024-05-09T19:08:48.579Z,23.77
2024-05-09T19:11:29.854Z,23.24
2024-05-09T19:14:19.753Z,24.01
2024-05-09T19:20:25.497Z,24.05
2024-05-09T19:26:20.979Z,23.75
2024-05-09T19:29:24.507Z,24.07
2024-05-09T19:31:59.842Z,24.02
2024-05-09T19:34:44.669Z,23.96
2024-05-09T19:37:21.263Z,24.22
2024-05-09T19:40:06.656Z,24.31
2024-05-09T19:42:38.999Z,24.48
2024-05-09T19:45:16.196Z,24.30
2024-05-09T19:47:56.715Z,24.26
2024-05-09T19:50:43.638Z,24.30
2024-05-09T19:53:22.882Z,24.88
2024-05-09T19:56:17.986Z,24.96
2024-05-09T19:59:15.115Z,24.70
2024-05-09T20:01:58.938Z,25.18
2024-05-09T20:04:52.285Z,25.34
2024-05-09T20:07:37.141Z,25.52
2024-05-09T20:10:26.216Z,25.95
2024-05-09T20:28:03.869Z,25.96
2024-05-09T20:33:38.955Z,25.67
2024-05-09T20:36:11.936Z,25.57
2024-05-09T21:01:39.892Z,26.52
2024-05-09T21:04:31.263Z,26.64
2024-05-09T21:07:19.223Z,26.66
2024-05-09T21:10:22.424Z,26.20
2024-05-09T21:13:10.954Z,26.76
2024-05-09T21:15:46.337Z,26.91
2024-05-09T21:18:30.745Z,27.13
2024-05-09T21:21:09.799Z,26.75
2024-05-09T21:23:49.728Z,26.91
2024-05-09T21:26:42.590Z,26.96
2024-05-09T21:29:30.722Z,26.99
2024-05-09T21:32:30.943Z,27.37
2024-05-09T21:35:18.968Z,26.98
2024-05-09T21:38:15.250Z,27.03
2024-05-09T21:41:22.229Z,27.49
2024-05-09T21:51:25.111Z,28.08
2024-05-09T21:54:04.667Z,27.77
2024-05-09T21:56:43.166Z,27.80
2024-05-09T21:59:21.040Z,28.61
2024-05-09T22:01:56.782Z,28.42
2024-05-09T22:04:38.310Z,28.31
2024-05-09T22:07:24.817Z,28.01
2024-05-09T22:10:38.150Z,28.88
2024-05-09T22:16:27.361Z,29.17
2024-05-09T22:19:05.926Z,29.08
2024-05-09T22:21:44.521Z,28.88
2024-05-09T22:27:20.498Z,28.43
2024-05-09T22:30:09.008Z,29.15
2024-05-09T22:39:16.293Z,29.09
2024-05-09T22:45:36.489Z,29.16
2024-05-09T22:46:16.498Z,29.23
2024-05-09T22:49:39.492Z,30.53
2024-05-09T22:52:28.513Z,30.72
2024-05-09T22:58:40.915Z,30.67
2024-05-09T23:01:50.199Z,30.57
2024-05-09T23:04:56.011Z,30.51
2024-05-09T23:07:32.040Z,30.01
2024-05-09T23:10:35.963Z,30.03
2024-05-09T23:13:54.555Z,30.50
2024-05-09T23:16:47.459Z,30.07
2024-05-09T23:22:52.595Z,30.19
2024-05-09T23:25:47.465Z,31.20
2024-05-09T23:28:42.876Z,31.24
2024-05-09T23:31:28.887Z,31.06
2024-05-09T23:34:15.952Z,30.66
2024-05-09T23:36:51.305Z,30.94
2024-05-09T23:39:30.030Z,31.40
2024-05-09T23:42:23.915Z,30.61
2024-05-09T23:45:03.811Z,30.61
2024-05-09T23:47:38.422Z,30.88
2024-05-09T23:50:33.808Z,31.27
2024-05-09T23:53:11.123Z,31.40
